Cotuit, Massachusetts
Current Conditions -  °F | °C
As of 9:15 AM on Tuesday 27 Jan 2015 (Local Time) from KFMH Reporting Station
Light Snow Light Snow  
Wind Chill:   Ceiling: 300
Heat Index: 25°   Visibility: 0mi
Dew Point: 23°   Wind: 28mph
Humidity: 93%   Direction: 360°N
Pressure: 29.33"   Gusts: 46mph
Location:  41.62°N, 70.44°W
Report Text: KFMH 271415Z AUTO 36024G40KT 330V030 M1/4SM -SN OVC003 M04/M05 A2933 RMK AO2
Loading
Personal Weather Stations






























Interactive Weather Map New forecast layout! Learn more

10-Day Weather Forecast

Advertisements
Track Severe Weather on mobile